Terminal Aerodrome Forecast
Issued by NWS Wilmington, NC

Home | Current Version | Previous Version | Text Only | Print | Product List | Glossary On
Versions: 1 2 3 4 5 6 7 8 9 10 11 12 13 14 15 16 17 18 19 20 21 22 23 24 25 26 27 28
425
FTUS42 KILM 242320
TAFILM
TAF
KILM 242320Z 2500/2524 18012KT P6SM SCT050 OVC120
     FM250300 19015G25KT 6SM -SHRA VCTS BKN015 OVC050CB
      WS015/19040KT
      TEMPO 2503/2506 4SM SHRA SCT015 OVC050
     FM250600 21012KT P6SM VCSH SCT045 BKN100
     FM250700 23012KT P6SM SCT045
     FM251400 24016G26KT P6SM BKN045 PROB30 2516/2521 4SM SHRA
     FM252100 25014G24KT P6SM SCT200=

USA.gov is the U.S. government's official web portal to all federal, state and local government web resources and services.